sensor_id;sensor_type;location;lat;lon;timestamp;P1;durP1;ratioP1;P2;durP2;ratioP2
5157;SDS011;2598;52.364;9.772;2023-05-07T00:01:04;21.10;;;14.27;;
5157;SDS011;2598;52.364;9.772;2023-05-07T00:03:31;20.40;;;13.80;;
5157;SDS011;2598;52.364;9.772;2023-05-07T00:05:57;20.00;;;13.80;;
5157;SDS011;2598;52.364;9.772;2023-05-07T00:08:23;21.90;;;13.40;;
5157;SDS011;2598;52.364;9.772;2023-05-07T00:10:49;20.23;;;12.93;;
5157;SDS011;2598;52.364;9.772;2023-05-07T00:13:15;20.50;;;13.10;;
5157;SDS011;2598;52.364;9.772;2023-05-07T00:15:41;22.53;;;13.63;;
5157;SDS011;2598;52.364;9.772;2023-05-07T00:18:06;23.20;;;13.80;;
5157;SDS011;2598;52.364;9.772;2023-05-07T00:20:32;22.17;;;15.40;;
5157;SDS011;2598;52.364;9.772;2023-05-07T00:22:58;22.37;;;13.43;;
5157;SDS011;2598;52.364;9.772;2023-05-07T00:25:24;24.10;;;15.50;;
5157;SDS011;2598;52.364;9.772;2023-05-07T00:27:50;19.87;;;13.70;;
5157;SDS011;2598;52.364;9.772;2023-05-07T00:30:16;25.03;;;15.60;;
5157;SDS011;2598;52.364;9.772;2023-05-07T00:32:42;24.43;;;15.97;;
5157;SDS011;2598;52.364;9.772;2023-05-07T00:35:10;26.00;;;16.50;;
5157;SDS011;2598;52.364;9.772;2023-05-07T00:37:36;29.87;;;15.90;;
5157;SDS011;2598;52.364;9.772;2023-05-07T00:40:02;24.80;;;15.07;;
5157;SDS011;2598;52.364;9.772;2023-05-07T00:42:31;26.07;;;16.90;;
5157;SDS011;2598;52.364;9.772;2023-05-07T00:44:58;22.77;;;15.57;;
5157;SDS011;2598;52.364;9.772;2023-05-07T00:47:24;29.27;;;15.40;;
5157;SDS011;2598;52.364;9.772;2023-05-07T00:49:50;26.73;;;15.60;;
5157;SDS011;2598;52.364;9.772;2023-05-07T00:52:17;27.93;;;17.17;;
5157;SDS011;2598;52.364;9.772;2023-05-07T00:54:43;27.33;;;16.40;;
5157;SDS011;2598;52.364;9.772;2023-05-07T00:57:10;26.43;;;16.37;;
5157;SDS011;2598;52.364;9.772;2023-05-07T00:59:36;25.70;;;16.20;;
5157;SDS011;2598;52.364;9.772;2023-05-07T01:02:03;21.50;;;14.90;;
5157;SDS011;2598;52.364;9.772;2023-05-07T01:04:29;23.83;;;15.43;;
5157;SDS011;2598;52.364;9.772;2023-05-07T01:06:55;28.43;;;17.17;;
5157;SDS011;2598;52.364;9.772;2023-05-07T01:09:22;25.37;;;18.10;;
5157;SDS011;2598;52.364;9.772;2023-05-07T01:11:49;31.60;;;18.50;;
5157;SDS011;2598;52.364;9.772;2023-05-07T01:14:16;25.87;;;15.83;;
5157;SDS011;2598;52.364;9.772;2023-05-07T01:16:42;26.17;;;16.57;;
5157;SDS011;2598;52.364;9.772;2023-05-07T01:19:09;31.10;;;16.10;;
5157;SDS011;2598;52.364;9.772;2023-05-07T01:21:36;29.00;;;18.17;;
5157;SDS011;2598;52.364;9.772;2023-05-07T01:24:02;22.63;;;15.73;;
5157;SDS011;2598;52.364;9.772;2023-05-07T01:26:28;30.73;;;17.70;;
5157;SDS011;2598;52.364;9.772;2023-05-07T01:28:54;29.13;;;17.57;;
5157;SDS011;2598;52.364;9.772;2023-05-07T01:31:20;24.43;;;15.63;;
5157;SDS011;2598;52.364;9.772;2023-05-07T01:33:46;27.30;;;16.77;;
5157;SDS011;2598;52.364;9.772;2023-05-07T01:36:14;28.87;;;16.33;;
5157;SDS011;2598;52.364;9.772;2023-05-07T01:38:42;25.23;;;16.00;;
5157;SDS011;2598;52.364;9.772;2023-05-07T01:41:08;26.67;;;17.10;;
5157;SDS011;2598;52.364;9.772;2023-05-07T01:43:34;22.53;;;15.30;;
5157;SDS011;2598;52.364;9.772;2023-05-07T01:46:01;26.93;;;15.40;;
5157;SDS011;2598;52.364;9.772;2023-05-07T01:48:27;28.30;;;15.57;;
5157;SDS011;2598;52.364;9.772;2023-05-07T01:50:53;22.13;;;14.17;;
5157;SDS011;2598;52.364;9.772;2023-05-07T01:53:20;25.27;;;15.30;;
5157;SDS011;2598;52.364;9.772;2023-05-07T01:55:46;22.97;;;14.70;;
5157;SDS011;2598;52.364;9.772;2023-05-07T01:58:12;27.20;;;14.60;;
5157;SDS011;2598;52.364;9.772;2023-05-07T02:00:39;22.80;;;14.30;;
5157;SDS011;2598;52.364;9.772;2023-05-07T02:03:05;26.17;;;14.67;;
5157;SDS011;2598;52.364;9.772;2023-05-07T02:05:31;22.97;;;13.30;;
5157;SDS011;2598;52.364;9.772;2023-05-07T02:07:57;19.20;;;12.33;;
5157;SDS011;2598;52.364;9.772;2023-05-07T02:10:23;19.37;;;11.90;;
5157;SDS011;2598;52.364;9.772;2023-05-07T02:12:49;17.50;;;11.30;;
5157;SDS011;2598;52.364;9.772;2023-05-07T02:15:15;22.07;;;11.23;;
5157;SDS011;2598;52.364;9.772;2023-05-07T02:18:01;19.43;;;11.80;;
5157;SDS011;2598;52.364;9.772;2023-05-07T02:20:27;16.70;;;9.80;;
5157;SDS011;2598;52.364;9.772;2023-05-07T02:22:53;14.53;;;9.10;;
5157;SDS011;2598;52.364;9.772;2023-05-07T02:25:18;18.33;;;9.23;;
5157;SDS011;2598;52.364;9.772;2023-05-07T02:27:44;19.30;;;10.67;;
5157;SDS011;2598;52.364;9.772;2023-05-07T02:30:10;15.03;;;9.07;;
5157;SDS011;2598;52.364;9.772;2023-05-07T02:32:36;15.73;;;9.20;;
5157;SDS011;2598;52.364;9.772;2023-05-07T02:35:02;15.63;;;9.80;;
5157;SDS011;2598;52.364;9.772;2023-05-07T02:37:28;16.60;;;9.40;;
5157;SDS011;2598;52.364;9.772;2023-05-07T02:39:54;14.87;;;9.13;;
5157;SDS011;2598;52.364;9.772;2023-05-07T02:42:20;13.50;;;8.80;;
5157;SDS011;2598;52.364;9.772;2023-05-07T02:44:46;14.17;;;9.00;;
5157;SDS011;2598;52.364;9.772;2023-05-07T02:47:13;13.40;;;9.07;;
5157;SDS011;2598;52.364;9.772;2023-05-07T02:49:38;13.97;;;8.30;;
5157;SDS011;2598;52.364;9.772;2023-05-07T02:52:04;13.10;;;8.43;;
5157;SDS011;2598;52.364;9.772;2023-05-07T02:54:31;16.00;;;10.03;;
5157;SDS011;2598;52.364;9.772;2023-05-07T02:56:56;14.73;;;9.37;;
5157;SDS011;2598;52.364;9.772;2023-05-07T02:59:23;17.97;;;9.40;;
5157;SDS011;2598;52.364;9.772;2023-05-07T03:01:50;16.07;;;9.10;;
5157;SDS011;2598;52.364;9.772;2023-05-07T03:04:16;17.90;;;10.40;;
5157;SDS011;2598;52.364;9.772;2023-05-07T03:06:42;17.67;;;10.20;;
5157;SDS011;2598;52.364;9.772;2023-05-07T03:09:07;14.80;;;9.73;;
5157;SDS011;2598;52.364;9.772;2023-05-07T03:11:33;14.00;;;8.57;;
5157;SDS011;2598;52.364;9.772;2023-05-07T03:14:00;13.40;;;8.07;;
5157;SDS011;2598;52.364;9.772;2023-05-07T03:16:26;14.53;;;8.60;;
5157;SDS011;2598;52.364;9.772;2023-05-07T03:18:52;13.70;;;8.00;;
5157;SDS011;2598;52.364;9.772;2023-05-07T03:21:18;14.03;;;8.50;;
5157;SDS011;2598;52.364;9.772;2023-05-07T03:23:44;15.17;;;8.50;;
5157;SDS011;2598;52.364;9.772;2023-05-07T03:26:10;14.57;;;9.03;;
5157;SDS011;2598;52.364;9.772;2023-05-07T03:28:36;15.17;;;8.03;;
5157;SDS011;2598;52.364;9.772;2023-05-07T03:31:02;14.77;;;7.60;;
5157;SDS011;2598;52.364;9.772;2023-05-07T03:33:28;13.97;;;8.67;;
5157;SDS011;2598;52.364;9.772;2023-05-07T03:35:54;13.83;;;7.30;;
5157;SDS011;2598;52.364;9.772;2023-05-07T03:38:20;13.33;;;8.30;;
5157;SDS011;2598;52.364;9.772;2023-05-07T03:40:46;12.63;;;7.30;;
5157;SDS011;2598;52.364;9.772;2023-05-07T03:43:12;13.50;;;8.40;;
5157;SDS011;2598;52.364;9.772;2023-05-07T03:45:38;11.77;;;8.23;;
5157;SDS011;2598;52.364;9.772;2023-05-07T03:48:04;13.20;;;7.53;;
5157;SDS011;2598;52.364;9.772;2023-05-07T03:50:30;16.17;;;8.20;;
5157;SDS011;2598;52.364;9.772;2023-05-07T03:52:56;12.40;;;7.30;;
5157;SDS011;2598;52.364;9.772;2023-05-07T03:55:22;12.13;;;7.27;;
5157;SDS011;2598;52.364;9.772;2023-05-07T03:57:48;9.33;;;6.07;;
5157;SDS011;2598;52.364;9.772;2023-05-07T04:00:14;13.50;;;8.10;;
5157;SDS011;2598;52.364;9.772;2023-05-07T04:02:40;12.57;;;6.90;;
5157;SDS011;2598;52.364;9.772;2023-05-07T04:05:06;12.17;;;7.67;;
5157;SDS011;2598;52.364;9.772;2023-05-07T04:07:32;12.30;;;7.70;;
5157;SDS011;2598;52.364;9.772;2023-05-07T04:09:58;18.03;;;8.27;;
5157;SDS011;2598;52.364;9.772;2023-05-07T04:12:24;12.53;;;7.70;;
5157;SDS011;2598;52.364;9.772;2023-05-07T04:14:50;13.77;;;8.47;;
5157;SDS011;2598;52.364;9.772;2023-05-07T04:17:16;12.83;;;8.13;;
5157;SDS011;2598;52.364;9.772;2023-05-07T04:19:42;13.00;;;8.27;;
5157;SDS011;2598;52.364;9.772;2023-05-07T04:22:10;11.67;;;8.00;;
5157;SDS011;2598;52.364;9.772;2023-05-07T04:24:36;12.83;;;7.93;;
5157;SDS011;2598;52.364;9.772;2023-05-07T04:27:02;15.83;;;8.80;;
5157;SDS011;2598;52.364;9.772;2023-05-07T04:29:28;13.83;;;8.97;;
5157;SDS011;2598;52.364;9.772;2023-05-07T04:31:54;13.70;;;7.87;;
5157;SDS011;2598;52.364;9.772;2023-05-07T04:34:21;12.50;;;7.30;;
5157;SDS011;2598;52.364;9.772;2023-05-07T04:36:47;14.73;;;8.73;;
5157;SDS011;2598;52.364;9.772;2023-05-07T04:39:13;11.97;;;7.57;;
5157;SDS011;2598;52.364;9.772;2023-05-07T04:41:39;13.33;;;8.63;;
5157;SDS011;2598;52.364;9.772;2023-05-07T04:44:05;14.50;;;8.57;;
5157;SDS011;2598;52.364;9.772;2023-05-07T04:46:31;15.73;;;9.53;;
5157;SDS011;2598;52.364;9.772;2023-05-07T04:48:57;16.63;;;9.03;;
5157;SDS011;2598;52.364;9.772;2023-05-07T04:51:23;14.70;;;8.70;;
5157;SDS011;2598;52.364;9.772;2023-05-07T04:53:49;13.93;;;8.90;;
5157;SDS011;2598;52.364;9.772;2023-05-07T04:56:15;13.20;;;8.40;;
5157;SDS011;2598;52.364;9.772;2023-05-07T04:58:41;14.20;;;8.90;;
5157;SDS011;2598;52.364;9.772;2023-05-07T05:01:07;13.57;;;8.57;;
5157;SDS011;2598;52.364;9.772;2023-05-07T05:03:33;13.30;;;8.30;;
5157;SDS011;2598;52.364;9.772;2023-05-07T05:05:59;12.87;;;7.93;;
5157;SDS011;2598;52.364;9.772;2023-05-07T05:08:25;14.00;;;8.47;;
5157;SDS011;2598;52.364;9.772;2023-05-07T05:10:51;12.20;;;7.23;;
5157;SDS011;2598;52.364;9.772;2023-05-07T05:13:17;12.60;;;7.87;;
5157;SDS011;2598;52.364;9.772;2023-05-07T05:15:43;13.57;;;8.40;;
5157;SDS011;2598;52.364;9.772;2023-05-07T05:18:09;10.33;;;7.43;;
5157;SDS011;2598;52.364;9.772;2023-05-07T05:20:35;13.23;;;8.33;;
5157;SDS011;2598;52.364;9.772;2023-05-07T05:23:01;13.63;;;8.50;;
5157;SDS011;2598;52.364;9.772;2023-05-07T05:25:26;11.50;;;6.90;;
5157;SDS011;2598;52.364;9.772;2023-05-07T05:27:53;11.57;;;7.80;;
5157;SDS011;2598;52.364;9.772;2023-05-07T05:30:19;12.87;;;8.20;;
5157;SDS011;2598;52.364;9.772;2023-05-07T05:32:45;13.63;;;8.50;;
5157;SDS011;2598;52.364;9.772;2023-05-07T05:35:11;13.57;;;8.00;;
5157;SDS011;2598;52.364;9.772;2023-05-07T05:37:37;12.27;;;7.80;;
5157;SDS011;2598;52.364;9.772;2023-05-07T05:40:03;14.20;;;8.47;;
5157;SDS011;2598;52.364;9.772;2023-05-07T05:42:29;11.90;;;8.30;;
5157;SDS011;2598;52.364;9.772;2023-05-07T05:44:55;12.57;;;8.00;;
5157;SDS011;2598;52.364;9.772;2023-05-07T05:47:21;11.27;;;6.93;;
5157;SDS011;2598;52.364;9.772;2023-05-07T05:49:48;12.50;;;7.37;;
5157;SDS011;2598;52.364;9.772;2023-05-07T05:52:14;10.90;;;6.67;;
5157;SDS011;2598;52.364;9.772;2023-05-07T05:54:41;12.67;;;8.07;;
5157;SDS011;2598;52.364;9.772;2023-05-07T05:57:07;10.63;;;7.10;;
5157;SDS011;2598;52.364;9.772;2023-05-07T05:59:33;11.37;;;6.73;;
5157;SDS011;2598;52.364;9.772;2023-05-07T06:01:59;12.57;;;8.10;;
5157;SDS011;2598;52.364;9.772;2023-05-07T06:04:25;12.27;;;7.53;;
5157;SDS011;2598;52.364;9.772;2023-05-07T06:06:51;10.27;;;7.27;;
5157;SDS011;2598;52.364;9.772;2023-05-07T06:09:17;11.50;;;7.67;;
5157;SDS011;2598;52.364;9.772;2023-05-07T06:11:43;10.90;;;7.10;;
5157;SDS011;2598;52.364;9.772;2023-05-07T06:14:09;10.77;;;6.77;;
5157;SDS011;2598;52.364;9.772;2023-05-07T06:16:34;9.53;;;6.43;;
5157;SDS011;2598;52.364;9.772;2023-05-07T06:19:02;11.63;;;7.97;;
5157;SDS011;2598;52.364;9.772;2023-05-07T06:21:28;10.23;;;6.63;;
5157;SDS011;2598;52.364;9.772;2023-05-07T06:23:55;12.10;;;7.27;;
5157;SDS011;2598;52.364;9.772;2023-05-07T06:26:21;11.03;;;6.77;;
5157;SDS011;2598;52.364;9.772;2023-05-07T06:28:47;10.67;;;6.63;;
5157;SDS011;2598;52.364;9.772;2023-05-07T06:31:16;10.80;;;6.50;;
5157;SDS011;2598;52.364;9.772;2023-05-07T06:33:45;10.47;;;6.23;;
5157;SDS011;2598;52.364;9.772;2023-05-07T06:36:11;12.63;;;5.73;;
5157;SDS011;2598;52.364;9.772;2023-05-07T06:38:37;9.57;;;6.40;;
5157;SDS011;2598;52.364;9.772;2023-05-07T06:41:02;8.93;;;5.77;;
5157;SDS011;2598;52.364;9.772;2023-05-07T06:43:28;10.30;;;6.50;;
5157;SDS011;2598;52.364;9.772;2023-05-07T06:45:54;11.53;;;6.57;;
5157;SDS011;2598;52.364;9.772;2023-05-07T06:48:20;9.20;;;5.97;;
5157;SDS011;2598;52.364;9.772;2023-05-07T06:50:46;15.17;;;6.63;;
5157;SDS011;2598;52.364;9.772;2023-05-07T06:53:12;9.43;;;6.63;;
5157;SDS011;2598;52.364;9.772;2023-05-07T06:55:38;9.53;;;6.00;;
5157;SDS011;2598;52.364;9.772;2023-05-07T06:58:04;10.37;;;7.00;;
5157;SDS011;2598;52.364;9.772;2023-05-07T07:00:30;11.13;;;7.83;;
5157;SDS011;2598;52.364;9.772;2023-05-07T07:02:56;11.00;;;8.10;;
5157;SDS011;2598;52.364;9.772;2023-05-07T07:05:23;11.93;;;7.83;;
5157;SDS011;2598;52.364;9.772;2023-05-07T07:07:49;10.93;;;7.60;;
5157;SDS011;2598;52.364;9.772;2023-05-07T07:10:18;11.63;;;8.53;;
5157;SDS011;2598;52.364;9.772;2023-05-07T07:12:44;11.53;;;8.17;;
5157;SDS011;2598;52.364;9.772;2023-05-07T07:15:10;11.30;;;8.57;;
5157;SDS011;2598;52.364;9.772;2023-05-07T07:17:36;12.13;;;8.97;;
5157;SDS011;2598;52.364;9.772;2023-05-07T07:20:02;12.43;;;9.10;;
5157;SDS011;2598;52.364;9.772;2023-05-07T07:22:28;12.03;;;8.50;;
5157;SDS011;2598;52.364;9.772;2023-05-07T07:24:54;11.90;;;9.33;;
5157;SDS011;2598;52.364;9.772;2023-05-07T07:27:20;16.03;;;9.33;;
5157;SDS011;2598;52.364;9.772;2023-05-07T07:29:46;12.60;;;8.87;;
5157;SDS011;2598;52.364;9.772;2023-05-07T07:32:12;12.20;;;8.53;;
5157;SDS011;2598;52.364;9.772;2023-05-07T07:34:38;15.30;;;9.70;;
5157;SDS011;2598;52.364;9.772;2023-05-07T07:37:04;12.53;;;9.50;;
5157;SDS011;2598;52.364;9.772;2023-05-07T07:39:34;11.50;;;8.00;;
5157;SDS011;2598;52.364;9.772;2023-05-07T07:42:02;12.50;;;9.27;;
5157;SDS011;2598;52.364;9.772;2023-05-07T07:44:28;12.70;;;8.57;;
5157;SDS011;2598;52.364;9.772;2023-05-07T07:46:54;13.50;;;9.53;;
5157;SDS011;2598;52.364;9.772;2023-05-07T07:49:20;12.83;;;9.27;;
5157;SDS011;2598;52.364;9.772;2023-05-07T07:51:46;11.60;;;7.77;;
5157;SDS011;2598;52.364;9.772;2023-05-07T07:54:12;11.40;;;7.80;;
5157;SDS011;2598;52.364;9.772;2023-05-07T07:56:38;10.30;;;7.53;;
5157;SDS011;2598;52.364;9.772;2023-05-07T07:59:04;11.20;;;7.80;;
5157;SDS011;2598;52.364;9.772;2023-05-07T08:01:30;11.40;;;8.20;;
5157;SDS011;2598;52.364;9.772;2023-05-07T08:03:56;11.63;;;7.77;;
5157;SDS011;2598;52.364;9.772;2023-05-07T08:06:25;11.03;;;7.77;;
5157;SDS011;2598;52.364;9.772;2023-05-07T08:08:51;11.00;;;7.53;;
5157;SDS011;2598;52.364;9.772;2023-05-07T08:11:17;11.77;;;7.20;;
5157;SDS011;2598;52.364;9.772;2023-05-07T08:13:43;11.10;;;7.20;;
5157;SDS011;2598;52.364;9.772;2023-05-07T08:16:10;10.20;;;6.80;;
5157;SDS011;2598;52.364;9.772;2023-05-07T08:18:36;11.90;;;7.20;;
5157;SDS011;2598;52.364;9.772;2023-05-07T08:21:02;10.60;;;7.10;;
5157;SDS011;2598;52.364;9.772;2023-05-07T08:23:28;9.83;;;7.03;;
5157;SDS011;2598;52.364;9.772;2023-05-07T08:25:53;10.30;;;6.73;;
5157;SDS011;2598;52.364;9.772;2023-05-07T08:28:19;13.23;;;7.37;;
5157;SDS011;2598;52.364;9.772;2023-05-07T08:30:46;10.67;;;7.20;;
5157;SDS011;2598;52.364;9.772;2023-05-07T08:33:12;12.97;;;7.80;;
5157;SDS011;2598;52.364;9.772;2023-05-07T08:35:38;13.20;;;7.80;;
5157;SDS011;2598;52.364;9.772;2023-05-07T08:38:04;10.30;;;6.97;;
5157;SDS011;2598;52.364;9.772;2023-05-07T08:40:30;10.90;;;7.17;;
5157;SDS011;2598;52.364;9.772;2023-05-07T08:43:00;10.20;;;6.57;;
5157;SDS011;2598;52.364;9.772;2023-05-07T08:45:27;14.23;;;7.83;;
5157;SDS011;2598;52.364;9.772;2023-05-07T08:47:58;11.47;;;7.00;;
5157;SDS011;2598;52.364;9.772;2023-05-07T08:50:24;11.03;;;6.70;;
5157;SDS011;2598;52.364;9.772;2023-05-07T08:52:50;11.93;;;7.57;;
5157;SDS011;2598;52.364;9.772;2023-05-07T08:55:16;11.53;;;6.80;;
5157;SDS011;2598;52.364;9.772;2023-05-07T08:57:42;12.30;;;7.43;;
5157;SDS011;2598;52.364;9.772;2023-05-07T09:00:09;10.30;;;6.60;;
5157;SDS011;2598;52.364;9.772;2023-05-07T09:02:35;9.97;;;6.47;;
5157;SDS011;2598;52.364;9.772;2023-05-07T09:05:01;9.40;;;6.73;;
5157;SDS011;2598;52.364;9.772;2023-05-07T09:07:27;12.57;;;7.83;;
5157;SDS011;2598;52.364;9.772;2023-05-07T09:09:53;10.30;;;7.70;;
5157;SDS011;2598;52.364;9.772;2023-05-07T09:12:20;12.70;;;6.83;;
5157;SDS011;2598;52.364;9.772;2023-05-07T09:14:47;11.37;;;8.07;;
5157;SDS011;2598;52.364;9.772;2023-05-07T09:17:13;11.83;;;7.80;;
5157;SDS011;2598;52.364;9.772;2023-05-07T09:19:39;11.63;;;8.10;;
5157;SDS011;2598;52.364;9.772;2023-05-07T09:22:05;10.63;;;7.60;;
5157;SDS011;2598;52.364;9.772;2023-05-07T09:24:34;10.67;;;7.17;;
5157;SDS011;2598;52.364;9.772;2023-05-07T09:27:02;11.20;;;7.90;;
5157;SDS011;2598;52.364;9.772;2023-05-07T09:29:28;10.23;;;6.53;;
5157;SDS011;2598;52.364;9.772;2023-05-07T09:31:55;11.53;;;7.10;;
5157;SDS011;2598;52.364;9.772;2023-05-07T09:34:21;10.30;;;6.83;;
5157;SDS011;2598;52.364;9.772;2023-05-07T09:36:47;12.30;;;7.83;;
5157;SDS011;2598;52.364;9.772;2023-05-07T09:39:13;11.87;;;7.10;;
5157;SDS011;2598;52.364;9.772;2023-05-07T09:41:48;9.90;;;7.10;;
5157;SDS011;2598;52.364;9.772;2023-05-07T09:44:16;12.10;;;7.93;;
5157;SDS011;2598;52.364;9.772;2023-05-07T09:46:42;11.10;;;6.77;;
5157;SDS011;2598;52.364;9.772;2023-05-07T09:49:18;12.33;;;6.40;;
5157;SDS011;2598;52.364;9.772;2023-05-07T09:51:48;10.80;;;7.70;;
5157;SDS011;2598;52.364;9.772;2023-05-07T09:54:14;11.23;;;7.90;;
5157;SDS011;2598;52.364;9.772;2023-05-07T09:56:40;11.77;;;7.90;;
5157;SDS011;2598;52.364;9.772;2023-05-07T09:59:07;11.10;;;7.93;;
5157;SDS011;2598;52.364;9.772;2023-05-07T10:01:35;15.80;;;8.10;;
5157;SDS011;2598;52.364;9.772;2023-05-07T10:04:02;15.17;;;8.10;;
5157;SDS011;2598;52.364;9.772;2023-05-07T10:06:29;12.00;;;8.63;;
5157;SDS011;2598;52.364;9.772;2023-05-07T10:08:55;13.60;;;7.70;;
5157;SDS011;2598;52.364;9.772;2023-05-07T10:11:22;10.20;;;7.37;;
5157;SDS011;2598;52.364;9.772;2023-05-07T10:13:48;12.90;;;8.17;;
5157;SDS011;2598;52.364;9.772;2023-05-07T10:16:14;11.87;;;8.43;;
5157;SDS011;2598;52.364;9.772;2023-05-07T10:18:40;11.00;;;7.50;;
5157;SDS011;2598;52.364;9.772;2023-05-07T10:21:07;11.57;;;8.30;;
5157;SDS011;2598;52.364;9.772;2023-05-07T10:23:34;11.77;;;7.77;;
5157;SDS011;2598;52.364;9.772;2023-05-07T10:26:03;11.43;;;8.20;;
5157;SDS011;2598;52.364;9.772;2023-05-07T10:28:30;13.33;;;8.13;;
5157;SDS011;2598;52.364;9.772;2023-05-07T10:34:00;11.63;;;8.23;;
5157;SDS011;2598;52.364;9.772;2023-05-07T10:36:27;12.63;;;7.30;;
5157;SDS011;2598;52.364;9.772;2023-05-07T10:38:53;11.03;;;7.57;;
5157;SDS011;2598;52.364;9.772;2023-05-07T10:41:19;9.60;;;7.37;;
5157;SDS011;2598;52.364;9.772;2023-05-07T10:43:46;10.47;;;6.90;;
5157;SDS011;2598;52.364;9.772;2023-05-07T10:46:15;10.90;;;7.60;;
5157;SDS011;2598;52.364;9.772;2023-05-07T10:51:30;9.60;;;5.67;;
5157;SDS011;2598;52.364;9.772;2023-05-07T10:56:42;10.00;;;6.80;;
5157;SDS011;2598;52.364;9.772;2023-05-07T11:01:55;10.07;;;6.93;;
5157;SDS011;2598;52.364;9.772;2023-05-07T11:04:22;11.27;;;6.93;;
5157;SDS011;2598;52.364;9.772;2023-05-07T11:12:43;10.40;;;7.00;;
5157;SDS011;2598;52.364;9.772;2023-05-07T11:15:09;8.80;;;6.57;;
5157;SDS011;2598;52.364;9.772;2023-05-07T11:20:20;8.67;;;6.13;;
5157;SDS011;2598;52.364;9.772;2023-05-07T11:22:46;9.60;;;6.60;;
5157;SDS011;2598;52.364;9.772;2023-05-07T11:25:17;10.40;;;6.30;;
5157;SDS011;2598;52.364;9.772;2023-05-07T11:27:44;8.60;;;6.13;;
5157;SDS011;2598;52.364;9.772;2023-05-07T11:30:10;9.13;;;6.13;;
5157;SDS011;2598;52.364;9.772;2023-05-07T11:32:36;8.93;;;5.83;;
5157;SDS011;2598;52.364;9.772;2023-05-07T11:35:02;8.27;;;5.30;;
5157;SDS011;2598;52.364;9.772;2023-05-07T11:37:28;9.50;;;5.50;;
5157;SDS011;2598;52.364;9.772;2023-05-07T11:40:04;9.83;;;6.07;;
5157;SDS011;2598;52.364;9.772;2023-05-07T11:42:32;7.87;;;6.00;;
5157;SDS011;2598;52.364;9.772;2023-05-07T11:44:59;8.13;;;5.80;;
5157;SDS011;2598;52.364;9.772;2023-05-07T11:47:25;9.83;;;6.90;;
5157;SDS011;2598;52.364;9.772;2023-05-07T11:49:54;9.03;;;5.30;;
5157;SDS011;2598;52.364;9.772;2023-05-07T11:52:20;7.63;;;5.47;;
5157;SDS011;2598;52.364;9.772;2023-05-07T11:57:16;7.90;;;5.17;;
5157;SDS011;2598;52.364;9.772;2023-05-07T11:59:41;8.30;;;5.17;;
5157;SDS011;2598;52.364;9.772;2023-05-07T12:02:13;9.17;;;5.50;;
5157;SDS011;2598;52.364;9.772;2023-05-07T12:04:40;10.50;;;6.10;;
5157;SDS011;2598;52.364;9.772;2023-05-07T12:07:10;7.87;;;5.00;;
5157;SDS011;2598;52.364;9.772;2023-05-07T12:09:36;8.00;;;5.50;;
5157;SDS011;2598;52.364;9.772;2023-05-07T12:12:05;9.43;;;5.37;;
5157;SDS011;2598;52.364;9.772;2023-05-07T12:14:31;6.73;;;4.63;;
5157;SDS011;2598;52.364;9.772;2023-05-07T12:16:57;8.00;;;5.30;;
5157;SDS011;2598;52.364;9.772;2023-05-07T12:19:26;9.20;;;5.10;;
5157;SDS011;2598;52.364;9.772;2023-05-07T12:21:51;7.07;;;4.67;;
5157;SDS011;2598;52.364;9.772;2023-05-07T12:24:17;11.00;;;4.93;;
5157;SDS011;2598;52.364;9.772;2023-05-07T12:26:43;7.80;;;4.27;;
5157;SDS011;2598;52.364;9.772;2023-05-07T12:29:09;6.30;;;4.50;;
5157;SDS011;2598;52.364;9.772;2023-05-07T12:31:35;6.60;;;4.60;;
5157;SDS011;2598;52.364;9.772;2023-05-07T12:34:02;7.20;;;4.63;;
5157;SDS011;2598;52.364;9.772;2023-05-07T12:36:35;7.77;;;5.37;;
5157;SDS011;2598;52.364;9.772;2023-05-07T12:39:03;11.10;;;5.20;;
5157;SDS011;2598;52.364;9.772;2023-05-07T12:41:30;7.57;;;3.83;;
5157;SDS011;2598;52.364;9.772;2023-05-07T12:43:56;7.20;;;4.60;;
5157;SDS011;2598;52.364;9.772;2023-05-07T12:46:23;7.73;;;4.07;;
5157;SDS011;2598;52.364;9.772;2023-05-07T12:48:49;7.60;;;4.80;;
5157;SDS011;2598;52.364;9.772;2023-05-07T12:51:15;7.23;;;4.37;;
5157;SDS011;2598;52.364;9.772;2023-05-07T12:53:41;6.30;;;4.00;;
5157;SDS011;2598;52.364;9.772;2023-05-07T12:56:07;7.90;;;5.23;;
5157;SDS011;2598;52.364;9.772;2023-05-07T12:58:34;7.80;;;4.57;;
5157;SDS011;2598;52.364;9.772;2023-05-07T13:01:01;7.83;;;5.63;;
5157;SDS011;2598;52.364;9.772;2023-05-07T13:03:33;6.93;;;4.77;;
5157;SDS011;2598;52.364;9.772;2023-05-07T13:05:59;8.50;;;6.30;;
5157;SDS011;2598;52.364;9.772;2023-05-07T13:08:29;7.33;;;5.40;;
5157;SDS011;2598;52.364;9.772;2023-05-07T13:10:56;7.67;;;5.53;;
5157;SDS011;2598;52.364;9.772;2023-05-07T13:13:22;8.60;;;5.50;;
5157;SDS011;2598;52.364;9.772;2023-05-07T13:15:48;6.70;;;4.97;;
5157;SDS011;2598;52.364;9.772;2023-05-07T13:18:14;8.43;;;5.70;;
5157;SDS011;2598;52.364;9.772;2023-05-07T13:20:40;8.73;;;5.90;;
5157;SDS011;2598;52.364;9.772;2023-05-07T13:23:06;9.13;;;5.50;;
5157;SDS011;2598;52.364;9.772;2023-05-07T13:25:32;8.73;;;5.47;;
5157;SDS011;2598;52.364;9.772;2023-05-07T13:27:58;7.23;;;5.27;;
5157;SDS011;2598;52.364;9.772;2023-05-07T13:30:24;11.10;;;6.53;;
5157;SDS011;2598;52.364;9.772;2023-05-07T13:32:50;10.50;;;6.40;;
5157;SDS011;2598;52.364;9.772;2023-05-07T13:35:17;9.63;;;6.27;;
5157;SDS011;2598;52.364;9.772;2023-05-07T13:37:42;8.47;;;6.03;;
5157;SDS011;2598;52.364;9.772;2023-05-07T13:40:09;7.37;;;5.30;;
5157;SDS011;2598;52.364;9.772;2023-05-07T13:42:35;7.87;;;5.90;;
5157;SDS011;2598;52.364;9.772;2023-05-07T13:45:01;11.30;;;6.00;;
5157;SDS011;2598;52.364;9.772;2023-05-07T13:47:30;9.53;;;5.93;;
5157;SDS011;2598;52.364;9.772;2023-05-07T13:49:56;8.63;;;6.50;;
5157;SDS011;2598;52.364;9.772;2023-05-07T13:52:22;11.00;;;6.80;;
5157;SDS011;2598;52.364;9.772;2023-05-07T13:54:47;9.30;;;6.00;;
5157;SDS011;2598;52.364;9.772;2023-05-07T13:57:13;9.53;;;5.47;;
5157;SDS011;2598;52.364;9.772;2023-05-07T13:59:40;8.10;;;5.60;;
5157;SDS011;2598;52.364;9.772;2023-05-07T14:02:06;10.97;;;5.80;;
5157;SDS011;2598;52.364;9.772;2023-05-07T14:04:32;11.70;;;5.73;;
5157;SDS011;2598;52.364;9.772;2023-05-07T14:06:58;8.33;;;5.47;;
5157;SDS011;2598;52.364;9.772;2023-05-07T14:09:24;9.80;;;5.10;;
5157;SDS011;2598;52.364;9.772;2023-05-07T14:11:50;13.43;;;5.03;;
5157;SDS011;2598;52.364;9.772;2023-05-07T14:14:17;7.30;;;5.00;;
5157;SDS011;2598;52.364;9.772;2023-05-07T14:16:43;11.53;;;6.07;;
5157;SDS011;2598;52.364;9.772;2023-05-07T14:19:10;8.37;;;5.97;;
5157;SDS011;2598;52.364;9.772;2023-05-07T14:21:36;7.20;;;4.70;;
5157;SDS011;2598;52.364;9.772;2023-05-07T14:24:02;9.03;;;5.83;;
5157;SDS011;2598;52.364;9.772;2023-05-07T14:26:28;9.20;;;5.17;;
5157;SDS011;2598;52.364;9.772;2023-05-07T14:28:54;10.30;;;5.47;;
5157;SDS011;2598;52.364;9.772;2023-05-07T14:31:22;8.50;;;5.97;;
5157;SDS011;2598;52.364;9.772;2023-05-07T14:33:48;7.43;;;5.13;;
5157;SDS011;2598;52.364;9.772;2023-05-07T14:36:15;9.70;;;5.20;;
5157;SDS011;2598;52.364;9.772;2023-05-07T14:38:41;16.93;;;5.20;;
5157;SDS011;2598;52.364;9.772;2023-05-07T14:41:07;9.17;;;5.87;;
5157;SDS011;2598;52.364;9.772;2023-05-07T14:43:33;7.50;;;4.90;;
5157;SDS011;2598;52.364;9.772;2023-05-07T14:45:59;9.10;;;6.00;;
5157;SDS011;2598;52.364;9.772;2023-05-07T14:48:25;8.50;;;5.33;;
5157;SDS011;2598;52.364;9.772;2023-05-07T14:50:51;9.20;;;5.80;;
5157;SDS011;2598;52.364;9.772;2023-05-07T14:53:17;14.20;;;5.67;;
5157;SDS011;2598;52.364;9.772;2023-05-07T14:55:43;9.50;;;5.50;;
5157;SDS011;2598;52.364;9.772;2023-05-07T14:58:09;7.47;;;4.87;;
5157;SDS011;2598;52.364;9.772;2023-05-07T15:00:35;8.90;;;5.90;;
5157;SDS011;2598;52.364;9.772;2023-05-07T15:03:05;9.37;;;5.67;;
5157;SDS011;2598;52.364;9.772;2023-05-07T15:05:32;10.00;;;5.33;;
5157;SDS011;2598;52.364;9.772;2023-05-07T15:07:58;8.40;;;5.50;;
5157;SDS011;2598;52.364;9.772;2023-05-07T15:10:24;9.27;;;5.47;;
5157;SDS011;2598;52.364;9.772;2023-05-07T15:12:50;9.00;;;5.73;;
5157;SDS011;2598;52.364;9.772;2023-05-07T15:15:16;9.87;;;5.73;;
5157;SDS011;2598;52.364;9.772;2023-05-07T15:17:42;12.10;;;5.50;;
5157;SDS011;2598;52.364;9.772;2023-05-07T15:20:08;9.40;;;5.33;;